KCKV

Outlaw Field Airport

Clarksville, Tennessee, USA
METAR KCKV 160052Z AUTO 25005KT 10SM OVC026 11/04 A2997 RMK AO2 SLP148 T01060044
Observed Flight Rules
Dec-16 @ 00:52 UTC (24 minutes ago) Marginal Visual Flight Rules
Wind Visibility Clouds
250° at 5 knots 10 miles
  • Overcast at 2,600' AGL
Temperatures Readings
Current 11°C / 52°F
Dewpoint 4°C / 39°F
Humidity 62%
Altimeter 29.97" Hg
Pressure 1014.8 hPa
Elevation 165
METAR KCKV 160052Z AUTO 25005KT 10SM OVC026 11/04 A2997 RMK AO2 SLP148 T01060044
Observed Flight Rules
Dec-16 @ 00:52 UTC
(24 minutes ago)
MVFR
Wind Visibility
250° at 5 knots 10 miles
Clouds
  • Overcast at 2,600' AGL
Temperature Dewpoint
11°C / 52°F 4°C / 39°F
Humidity Altimeter Pressure
62% 29.97" Hg 1014.8 hPa